sensor_id;sensor_type;location;lat;lon;timestamp;P1;durP1;ratioP1;P2;durP2;ratioP2
70825;SDS011;58446;41.490;22.098;2022-11-03T00:01:40;43.80;;;23.85;;
70825;SDS011;58446;41.490;22.098;2022-11-03T00:04:07;46.17;;;25.48;;
70825;SDS011;58446;41.490;22.098;2022-11-03T00:06:35;53.47;;;26.20;;
70825;SDS011;58446;41.490;22.098;2022-11-03T00:09:02;49.17;;;25.17;;
70825;SDS011;58446;41.490;22.098;2022-11-03T00:11:33;44.53;;;25.23;;
70825;SDS011;58446;41.490;22.098;2022-11-03T00:14:00;45.72;;;24.20;;
70825;SDS011;58446;41.490;22.098;2022-11-03T00:16:26;42.03;;;23.25;;
70825;SDS011;58446;41.490;22.098;2022-11-03T00:18:52;42.58;;;22.73;;
70825;SDS011;58446;41.490;22.098;2022-11-03T00:21:18;35.90;;;21.53;;
70825;SDS011;58446;41.490;22.098;2022-11-03T00:23:44;40.22;;;21.38;;
70825;SDS011;58446;41.490;22.098;2022-11-03T00:28:38;38.55;;;20.60;;
70825;SDS011;58446;41.490;22.098;2022-11-03T00:31:09;36.57;;;18.80;;
70825;SDS011;58446;41.490;22.098;2022-11-03T00:33:37;33.03;;;19.65;;
70825;SDS011;58446;41.490;22.098;2022-11-03T00:36:03;32.17;;;19.35;;
70825;SDS011;58446;41.490;22.098;2022-11-03T00:38:30;32.05;;;18.50;;
70825;SDS011;58446;41.490;22.098;2022-11-03T00:40:56;32.50;;;18.17;;
70825;SDS011;58446;41.490;22.098;2022-11-03T00:43:24;34.73;;;18.77;;
70825;SDS011;58446;41.490;22.098;2022-11-03T00:45:51;29.15;;;18.48;;
70825;SDS011;58446;41.490;22.098;2022-11-03T00:48:17;37.42;;;20.40;;
70825;SDS011;58446;41.490;22.098;2022-11-03T00:53:31;34.30;;;19.17;;
70825;SDS011;58446;41.490;22.098;2022-11-03T00:55:59;32.50;;;18.43;;
70825;SDS011;58446;41.490;22.098;2022-11-03T00:58:25;35.55;;;18.75;;
70825;SDS011;58446;41.490;22.098;2022-11-03T01:01:01;29.05;;;18.10;;
70825;SDS011;58446;41.490;22.098;2022-11-03T01:03:36;29.50;;;17.25;;
70825;SDS011;58446;41.490;22.098;2022-11-03T01:06:06;35.50;;;17.93;;
70825;SDS011;58446;41.490;22.098;2022-11-03T01:08:51;29.25;;;17.55;;
70825;SDS011;58446;41.490;22.098;2022-11-03T01:11:18;26.30;;;15.88;;
70825;SDS011;58446;41.490;22.098;2022-11-03T01:14:04;24.38;;;14.55;;
70825;SDS011;58446;41.490;22.098;2022-11-03T01:16:30;26.90;;;14.63;;
70825;SDS011;58446;41.490;22.098;2022-11-03T01:18:56;27.88;;;14.68;;
70825;SDS011;58446;41.490;22.098;2022-11-03T01:21:22;28.25;;;15.48;;
70825;SDS011;58446;41.490;22.098;2022-11-03T01:23:49;24.70;;;15.07;;
70825;SDS011;58446;41.490;22.098;2022-11-03T01:26:15;22.53;;;14.80;;
70825;SDS011;58446;41.490;22.098;2022-11-03T01:28:43;26.00;;;15.02;;
70825;SDS011;58446;41.490;22.098;2022-11-03T01:31:13;24.75;;;14.13;;
70825;SDS011;58446;41.490;22.098;2022-11-03T01:33:43;29.17;;;15.02;;
70825;SDS011;58446;41.490;22.098;2022-11-03T01:36:09;30.73;;;15.17;;
70825;SDS011;58446;41.490;22.098;2022-11-03T01:38:36;29.13;;;14.45;;
70825;SDS011;58446;41.490;22.098;2022-11-03T01:41:03;25.60;;;14.43;;
70825;SDS011;58446;41.490;22.098;2022-11-03T01:43:30;23.70;;;13.57;;
70825;SDS011;58446;41.490;22.098;2022-11-03T01:46:06;23.20;;;14.63;;
70825;SDS011;58446;41.490;22.098;2022-11-03T01:48:42;29.00;;;14.30;;
70825;SDS011;58446;41.490;22.098;2022-11-03T01:51:12;24.65;;;13.77;;
70825;SDS011;58446;41.490;22.098;2022-11-03T01:53:43;23.65;;;13.68;;
70825;SDS011;58446;41.490;22.098;2022-11-03T01:56:12;23.90;;;13.48;;
70825;SDS011;58446;41.490;22.098;2022-11-03T01:58:40;26.58;;;13.30;;
70825;SDS011;58446;41.490;22.098;2022-11-03T02:01:09;19.10;;;12.40;;
70825;SDS011;58446;41.490;22.098;2022-11-03T02:03:42;28.02;;;13.23;;
70825;SDS011;58446;41.490;22.098;2022-11-03T02:06:12;23.73;;;12.38;;
70825;SDS011;58446;41.490;22.098;2022-11-03T02:11:13;23.50;;;13.73;;
70825;SDS011;58446;41.490;22.098;2022-11-03T02:13:57;27.27;;;13.40;;
70825;SDS011;58446;41.490;22.098;2022-11-03T02:16:23;23.77;;;12.45;;
70825;SDS011;58446;41.490;22.098;2022-11-03T02:18:50;29.27;;;14.65;;
70825;SDS011;58446;41.490;22.098;2022-11-03T02:21:25;26.20;;;12.77;;
70825;SDS011;58446;41.490;22.098;2022-11-03T02:24:09;23.73;;;13.60;;
70825;SDS011;58446;41.490;22.098;2022-11-03T02:26:42;23.13;;;13.40;;
70825;SDS011;58446;41.490;22.098;2022-11-03T02:29:12;24.75;;;13.15;;
70825;SDS011;58446;41.490;22.098;2022-11-03T02:31:42;23.92;;;13.65;;
70825;SDS011;58446;41.490;22.098;2022-11-03T02:34:18;24.33;;;13.97;;
70825;SDS011;58446;41.490;22.098;2022-11-03T02:36:52;27.48;;;12.95;;
70825;SDS011;58446;41.490;22.098;2022-11-03T02:39:29;20.20;;;12.13;;
70825;SDS011;58446;41.490;22.098;2022-11-03T02:42:00;24.25;;;13.50;;
70825;SDS011;58446;41.490;22.098;2022-11-03T02:44:28;27.70;;;14.95;;
70825;SDS011;58446;41.490;22.098;2022-11-03T02:46:57;28.10;;;15.33;;
70825;SDS011;58446;41.490;22.098;2022-11-03T02:49:26;28.17;;;15.27;;
70825;SDS011;58446;41.490;22.098;2022-11-03T02:52:01;29.88;;;13.55;;
70825;SDS011;58446;41.490;22.098;2022-11-03T02:54:30;28.63;;;13.95;;
70825;SDS011;58446;41.490;22.098;2022-11-03T02:57:19;26.73;;;13.43;;
70825;SDS011;58446;41.490;22.098;2022-11-03T02:59:53;23.40;;;12.80;;
70825;SDS011;58446;41.490;22.098;2022-11-03T03:02:24;23.60;;;11.45;;
70825;SDS011;58446;41.490;22.098;2022-11-03T03:04:57;19.80;;;12.13;;
70825;SDS011;58446;41.490;22.098;2022-11-03T03:07:29;23.02;;;12.00;;
70825;SDS011;58446;41.490;22.098;2022-11-03T03:10:01;24.23;;;11.85;;
70825;SDS011;58446;41.490;22.098;2022-11-03T03:12:28;19.73;;;11.63;;
70825;SDS011;58446;41.490;22.098;2022-11-03T03:14:56;20.33;;;10.45;;
70825;SDS011;58446;41.490;22.098;2022-11-03T03:17:24;21.08;;;11.63;;
70825;SDS011;58446;41.490;22.098;2022-11-03T03:20:00;19.15;;;10.50;;
70825;SDS011;58446;41.490;22.098;2022-11-03T03:25:25;17.20;;;10.77;;
70825;SDS011;58446;41.490;22.098;2022-11-03T03:28:10;17.55;;;10.23;;
70825;SDS011;58446;41.490;22.098;2022-11-03T03:30:41;19.13;;;10.93;;
70825;SDS011;58446;41.490;22.098;2022-11-03T03:33:09;19.70;;;10.75;;
70825;SDS011;58446;41.490;22.098;2022-11-03T03:35:37;19.10;;;12.02;;
70825;SDS011;58446;41.490;22.098;2022-11-03T03:38:11;22.77;;;12.80;;
70825;SDS011;58446;41.490;22.098;2022-11-03T03:40:40;22.15;;;12.02;;
70825;SDS011;58446;41.490;22.098;2022-11-03T03:43:08;21.70;;;12.43;;
70825;SDS011;58446;41.490;22.098;2022-11-03T03:45:36;20.45;;;11.32;;
70825;SDS011;58446;41.490;22.098;2022-11-03T03:48:03;19.58;;;11.98;;
70825;SDS011;58446;41.490;22.098;2022-11-03T03:50:31;21.73;;;12.27;;
70825;SDS011;58446;41.490;22.098;2022-11-03T03:53:01;21.30;;;12.40;;
70825;SDS011;58446;41.490;22.098;2022-11-03T03:55:39;24.60;;;12.80;;
70825;SDS011;58446;41.490;22.098;2022-11-03T03:58:11;23.98;;;12.30;;
70825;SDS011;58446;41.490;22.098;2022-11-03T04:00:38;21.65;;;12.02;;
70825;SDS011;58446;41.490;22.098;2022-11-03T04:03:04;21.77;;;12.83;;
70825;SDS011;58446;41.490;22.098;2022-11-03T04:05:33;19.58;;;12.52;;
70825;SDS011;58446;41.490;22.098;2022-11-03T04:07:59;23.35;;;13.35;;
70825;SDS011;58446;41.490;22.098;2022-11-03T04:10:25;20.60;;;12.50;;
70825;SDS011;58446;41.490;22.098;2022-11-03T04:12:50;19.13;;;12.27;;
70825;SDS011;58446;41.490;22.098;2022-11-03T04:15:34;22.00;;;12.20;;
70825;SDS011;58446;41.490;22.098;2022-11-03T04:18:26;20.00;;;11.82;;
70825;SDS011;58446;41.490;22.098;2022-11-03T04:21:11;25.55;;;11.60;;
70825;SDS011;58446;41.490;22.098;2022-11-03T04:23:57;19.25;;;10.68;;
70825;SDS011;58446;41.490;22.098;2022-11-03T04:26:25;21.85;;;10.23;;
70825;SDS011;58446;41.490;22.098;2022-11-03T04:28:52;20.80;;;12.10;;
70825;SDS011;58446;41.490;22.098;2022-11-03T04:31:18;21.63;;;13.30;;
70825;SDS011;58446;41.490;22.098;2022-11-03T04:33:45;24.38;;;13.07;;
70825;SDS011;58446;41.490;22.098;2022-11-03T04:36:14;23.73;;;13.43;;
70825;SDS011;58446;41.490;22.098;2022-11-03T04:38:45;26.00;;;13.15;;
70825;SDS011;58446;41.490;22.098;2022-11-03T04:41:15;26.33;;;13.90;;
70825;SDS011;58446;41.490;22.098;2022-11-03T04:43:44;27.42;;;13.70;;
70825;SDS011;58446;41.490;22.098;2022-11-03T04:46:11;22.45;;;12.90;;
70825;SDS011;58446;41.490;22.098;2022-11-03T04:48:48;24.98;;;14.13;;
70825;SDS011;58446;41.490;22.098;2022-11-03T04:51:17;21.63;;;11.93;;
70825;SDS011;58446;41.490;22.098;2022-11-03T04:53:51;22.25;;;12.68;;
70825;SDS011;58446;41.490;22.098;2022-11-03T04:56:20;22.60;;;11.85;;
70825;SDS011;58446;41.490;22.098;2022-11-03T04:58:47;26.27;;;12.02;;
70825;SDS011;58446;41.490;22.098;2022-11-03T05:01:14;21.67;;;12.03;;
70825;SDS011;58446;41.490;22.098;2022-11-03T05:03:43;19.83;;;12.32;;
70825;SDS011;58446;41.490;22.098;2022-11-03T05:06:12;21.88;;;12.77;;
70825;SDS011;58446;41.490;22.098;2022-11-03T05:08:39;23.27;;;13.43;;
70825;SDS011;58446;41.490;22.098;2022-11-03T05:11:18;27.90;;;13.48;;
70825;SDS011;58446;41.490;22.098;2022-11-03T05:13:44;22.83;;;11.93;;
70825;SDS011;58446;41.490;22.098;2022-11-03T05:16:10;34.88;;;17.90;;
70825;SDS011;58446;41.490;22.098;2022-11-03T05:18:37;21.50;;;13.80;;
70825;SDS011;58446;41.490;22.098;2022-11-03T05:21:24;21.42;;;12.27;;
70825;SDS011;58446;41.490;22.098;2022-11-03T05:23:56;26.63;;;14.68;;
70825;SDS011;58446;41.490;22.098;2022-11-03T05:26:26;25.30;;;13.55;;
70825;SDS011;58446;41.490;22.098;2022-11-03T05:29:02;24.23;;;14.83;;
70825;SDS011;58446;41.490;22.098;2022-11-03T05:31:35;27.40;;;14.90;;
70825;SDS011;58446;41.490;22.098;2022-11-03T05:34:30;26.90;;;15.00;;
70825;SDS011;58446;41.490;22.098;2022-11-03T05:36:59;25.83;;;13.48;;
70825;SDS011;58446;41.490;22.098;2022-11-03T05:39:47;23.35;;;13.43;;
70825;SDS011;58446;41.490;22.098;2022-11-03T05:42:19;25.30;;;13.73;;
70825;SDS011;58446;41.490;22.098;2022-11-03T05:44:51;25.15;;;13.43;;
70825;SDS011;58446;41.490;22.098;2022-11-03T05:47:21;23.05;;;13.18;;
70825;SDS011;58446;41.490;22.098;2022-11-03T05:49:51;27.17;;;13.50;;
70825;SDS011;58446;41.490;22.098;2022-11-03T05:52:25;24.50;;;13.50;;
70825;SDS011;58446;41.490;22.098;2022-11-03T05:54:52;25.63;;;14.48;;
70825;SDS011;58446;41.490;22.098;2022-11-03T05:57:20;26.52;;;13.45;;
70825;SDS011;58446;41.490;22.098;2022-11-03T05:59:47;25.13;;;15.30;;
70825;SDS011;58446;41.490;22.098;2022-11-03T06:02:36;35.28;;;18.85;;
70825;SDS011;58446;41.490;22.098;2022-11-03T06:05:08;37.80;;;22.77;;
70825;SDS011;58446;41.490;22.098;2022-11-03T06:07:42;31.52;;;19.13;;
70825;SDS011;58446;41.490;22.098;2022-11-03T06:12:43;37.90;;;19.10;;
70825;SDS011;58446;41.490;22.098;2022-11-03T06:15:09;32.47;;;20.17;;
70825;SDS011;58446;41.490;22.098;2022-11-03T06:17:51;32.13;;;18.10;;
70825;SDS011;58446;41.490;22.098;2022-11-03T06:20:17;34.33;;;19.77;;
70825;SDS011;58446;41.490;22.098;2022-11-03T06:22:46;33.30;;;18.45;;
70825;SDS011;58446;41.490;22.098;2022-11-03T06:25:17;29.70;;;17.73;;
70825;SDS011;58446;41.490;22.098;2022-11-03T06:27:48;30.52;;;18.63;;
70825;SDS011;58446;41.490;22.098;2022-11-03T06:30:28;36.37;;;21.83;;
70825;SDS011;58446;41.490;22.098;2022-11-03T06:32:59;35.75;;;19.50;;
70825;SDS011;58446;41.490;22.098;2022-11-03T06:35:33;33.90;;;18.98;;
70825;SDS011;58446;41.490;22.098;2022-11-03T06:37:59;32.60;;;16.95;;
70825;SDS011;58446;41.490;22.098;2022-11-03T06:40:33;30.15;;;16.38;;
70825;SDS011;58446;41.490;22.098;2022-11-03T06:43:23;31.33;;;17.77;;
70825;SDS011;58446;41.490;22.098;2022-11-03T06:45:56;37.85;;;18.75;;
70825;SDS011;58446;41.490;22.098;2022-11-03T06:48:29;37.33;;;23.20;;
70825;SDS011;58446;41.490;22.098;2022-11-03T06:50:58;44.38;;;25.27;;
70825;SDS011;58446;41.490;22.098;2022-11-03T06:53:26;36.75;;;21.35;;
70825;SDS011;58446;41.490;22.098;2022-11-03T06:55:55;46.53;;;27.97;;
70825;SDS011;58446;41.490;22.098;2022-11-03T06:58:34;48.97;;;28.92;;
70825;SDS011;58446;41.490;22.098;2022-11-03T07:01:02;46.92;;;26.00;;
70825;SDS011;58446;41.490;22.098;2022-11-03T07:03:36;46.20;;;26.95;;
70825;SDS011;58446;41.490;22.098;2022-11-03T07:06:10;42.75;;;25.30;;
70825;SDS011;58446;41.490;22.098;2022-11-03T07:08:43;42.93;;;26.10;;
70825;SDS011;58446;41.490;22.098;2022-11-03T07:11:14;36.58;;;24.42;;
70825;SDS011;58446;41.490;22.098;2022-11-03T07:13:43;46.35;;;24.13;;
70825;SDS011;58446;41.490;22.098;2022-11-03T07:16:11;32.83;;;17.77;;
70825;SDS011;58446;41.490;22.098;2022-11-03T07:18:41;27.95;;;17.08;;
70825;SDS011;58446;41.490;22.098;2022-11-03T07:24:12;36.20;;;18.05;;
70825;SDS011;58446;41.490;22.098;2022-11-03T07:26:53;35.85;;;20.35;;
70825;SDS011;58446;41.490;22.098;2022-11-03T07:29:25;39.20;;;23.65;;
70825;SDS011;58446;41.490;22.098;2022-11-03T07:31:53;47.92;;;24.50;;
70825;SDS011;58446;41.490;22.098;2022-11-03T07:34:21;38.70;;;22.03;;
70825;SDS011;58446;41.490;22.098;2022-11-03T07:36:50;35.40;;;20.27;;
70825;SDS011;58446;41.490;22.098;2022-11-03T07:39:17;32.33;;;18.42;;
70825;SDS011;58446;41.490;22.098;2022-11-03T07:41:45;34.58;;;16.35;;
70825;SDS011;58446;41.490;22.098;2022-11-03T07:44:15;28.17;;;14.25;;
70825;SDS011;58446;41.490;22.098;2022-11-03T07:46:45;22.93;;;11.70;;
70825;SDS011;58446;41.490;22.098;2022-11-03T07:49:20;22.30;;;12.73;;
70825;SDS011;58446;41.490;22.098;2022-11-03T07:51:51;20.02;;;10.27;;
70825;SDS011;58446;41.490;22.098;2022-11-03T07:54:20;24.27;;;10.73;;
70825;SDS011;58446;41.490;22.098;2022-11-03T07:59:26;19.65;;;10.27;;
70825;SDS011;58446;41.490;22.098;2022-11-03T08:05:02;19.70;;;10.10;;
70825;SDS011;58446;41.490;22.098;2022-11-03T08:07:28;20.00;;;9.38;;
70825;SDS011;58446;41.490;22.098;2022-11-03T08:09:55;27.07;;;14.00;;
70825;SDS011;58446;41.490;22.098;2022-11-03T08:12:21;20.88;;;9.88;;
70825;SDS011;58446;41.490;22.098;2022-11-03T08:14:46;17.43;;;9.03;;
70825;SDS011;58446;41.490;22.098;2022-11-03T08:17:12;17.92;;;9.10;;
70825;SDS011;58446;41.490;22.098;2022-11-03T08:19:38;18.10;;;8.68;;
70825;SDS011;58446;41.490;22.098;2022-11-03T08:22:04;18.73;;;8.33;;
70825;SDS011;58446;41.490;22.098;2022-11-03T08:24:30;20.13;;;9.45;;
70825;SDS011;58446;41.490;22.098;2022-11-03T08:26:56;19.03;;;8.53;;
70825;SDS011;58446;41.490;22.098;2022-11-03T08:29:21;17.17;;;8.05;;
70825;SDS011;58446;41.490;22.098;2022-11-03T08:31:49;18.90;;;8.38;;
70825;SDS011;58446;41.490;22.098;2022-11-03T08:34:14;16.43;;;8.50;;
70825;SDS011;58446;41.490;22.098;2022-11-03T08:36:40;16.08;;;7.70;;
70825;SDS011;58446;41.490;22.098;2022-11-03T08:39:06;16.47;;;8.30;;
70825;SDS011;58446;41.490;22.098;2022-11-03T08:41:33;17.63;;;8.43;;
70825;SDS011;58446;41.490;22.098;2022-11-03T08:43:59;19.70;;;9.30;;
70825;SDS011;58446;41.490;22.098;2022-11-03T08:46:25;19.47;;;8.40;;
70825;SDS011;58446;41.490;22.098;2022-11-03T08:48:50;19.53;;;9.77;;
70825;SDS011;58446;41.490;22.098;2022-11-03T08:51:16;20.80;;;9.33;;
70825;SDS011;58446;41.490;22.098;2022-11-03T08:53:42;18.70;;;9.43;;
70825;SDS011;58446;41.490;22.098;2022-11-03T08:56:08;21.20;;;11.77;;
70825;SDS011;58446;41.490;22.098;2022-11-03T08:58:33;34.28;;;16.55;;
70825;SDS011;58446;41.490;22.098;2022-11-03T09:00:59;15.77;;;8.80;;
70825;SDS011;58446;41.490;22.098;2022-11-03T09:03:25;20.13;;;9.30;;
70825;SDS011;58446;41.490;22.098;2022-11-03T09:05:50;28.90;;;12.70;;
70825;SDS011;58446;41.490;22.098;2022-11-03T09:08:16;20.38;;;9.65;;
70825;SDS011;58446;41.490;22.098;2022-11-03T09:10:42;22.97;;;10.33;;
70825;SDS011;58446;41.490;22.098;2022-11-03T09:13:07;26.45;;;15.15;;
70825;SDS011;58446;41.490;22.098;2022-11-03T09:15:33;22.13;;;11.20;;
70825;SDS011;58446;41.490;22.098;2022-11-03T09:17:59;18.75;;;9.63;;
70825;SDS011;58446;41.490;22.098;2022-11-03T09:20:25;17.80;;;8.47;;
70825;SDS011;58446;41.490;22.098;2022-11-03T09:22:50;21.50;;;11.15;;
70825;SDS011;58446;41.490;22.098;2022-11-03T09:25:17;21.27;;;9.10;;
70825;SDS011;58446;41.490;22.098;2022-11-03T09:27:43;18.70;;;8.47;;
70825;SDS011;58446;41.490;22.098;2022-11-03T09:30:09;19.30;;;9.35;;
70825;SDS011;58446;41.490;22.098;2022-11-03T09:32:35;16.02;;;8.98;;
70825;SDS011;58446;41.490;22.098;2022-11-03T09:35:01;23.03;;;9.50;;
70825;SDS011;58446;41.490;22.098;2022-11-03T09:37:26;21.33;;;9.40;;
70825;SDS011;58446;41.490;22.098;2022-11-03T09:39:52;17.88;;;8.95;;
70825;SDS011;58446;41.490;22.098;2022-11-03T09:42:18;18.87;;;9.57;;
70825;SDS011;58446;41.490;22.098;2022-11-03T09:44:44;19.40;;;9.38;;
70825;SDS011;58446;41.490;22.098;2022-11-03T09:47:16;19.45;;;9.63;;
70825;SDS011;58446;41.490;22.098;2022-11-03T09:49:47;19.75;;;9.73;;
70825;SDS011;58446;41.490;22.098;2022-11-03T09:52:14;19.57;;;9.87;;
70825;SDS011;58446;41.490;22.098;2022-11-03T09:54:45;22.50;;;9.88;;
70825;SDS011;58446;41.490;22.098;2022-11-03T09:57:11;20.70;;;9.98;;
70825;SDS011;58446;41.490;22.098;2022-11-03T09:59:40;19.10;;;10.88;;
70825;SDS011;58446;41.490;22.098;2022-11-03T10:02:28;20.20;;;10.65;;
70825;SDS011;58446;41.490;22.098;2022-11-03T10:04:56;21.30;;;10.37;;
70825;SDS011;58446;41.490;22.098;2022-11-03T10:07:24;21.33;;;10.02;;
70825;SDS011;58446;41.490;22.098;2022-11-03T10:09:52;20.65;;;11.35;;
70825;SDS011;58446;41.490;22.098;2022-11-03T10:12:21;21.98;;;10.10;;
70825;SDS011;58446;41.490;22.098;2022-11-03T10:14:48;17.13;;;10.35;;
70825;SDS011;58446;41.490;22.098;2022-11-03T10:17:16;19.47;;;10.03;;
70825;SDS011;58446;41.490;22.098;2022-11-03T10:19:48;22.00;;;10.63;;
70825;SDS011;58446;41.490;22.098;2022-11-03T10:22:17;18.25;;;10.13;;
70825;SDS011;58446;41.490;22.098;2022-11-03T10:24:44;21.42;;;9.98;;
70825;SDS011;58446;41.490;22.098;2022-11-03T10:27:20;19.70;;;9.90;;
70825;SDS011;58446;41.490;22.098;2022-11-03T10:32:48;18.70;;;10.13;;
70825;SDS011;58446;41.490;22.098;2022-11-03T10:35:33;18.27;;;10.30;;
70825;SDS011;58446;41.490;22.098;2022-11-03T10:41:09;22.85;;;10.45;;
70825;SDS011;58446;41.490;22.098;2022-11-03T10:43:40;18.65;;;9.63;;
70825;SDS011;58446;41.490;22.098;2022-11-03T10:46:11;20.00;;;10.13;;
70825;SDS011;58446;41.490;22.098;2022-11-03T10:48:42;17.40;;;10.10;;
70825;SDS011;58446;41.490;22.098;2022-11-03T10:51:10;19.70;;;9.18;;
70825;SDS011;58446;41.490;22.098;2022-11-03T10:53:36;19.77;;;9.35;;
70825;SDS011;58446;41.490;22.098;2022-11-03T10:56:02;14.37;;;8.73;;
70825;SDS011;58446;41.490;22.098;2022-11-03T10:58:29;18.40;;;9.80;;
70825;SDS011;58446;41.490;22.098;2022-11-03T11:00:55;18.13;;;9.18;;
70825;SDS011;58446;41.490;22.098;2022-11-03T11:03:21;16.42;;;9.15;;
70825;SDS011;58446;41.490;22.098;2022-11-03T11:05:47;16.87;;;8.10;;
70825;SDS011;58446;41.490;22.098;2022-11-03T11:08:13;16.58;;;9.07;;
70825;SDS011;58446;41.490;22.098;2022-11-03T11:10:44;19.15;;;8.35;;
70825;SDS011;58446;41.490;22.098;2022-11-03T11:15:43;16.55;;;8.48;;
70825;SDS011;58446;41.490;22.098;2022-11-03T11:18:10;16.98;;;8.07;;
70825;SDS011;58446;41.490;22.098;2022-11-03T11:20:56;17.08;;;8.18;;
70825;SDS011;58446;41.490;22.098;2022-11-03T11:23:43;14.93;;;8.07;;
70825;SDS011;58446;41.490;22.098;2022-11-03T11:31:35;18.42;;;8.02;;
70825;SDS011;58446;41.490;22.098;2022-11-03T11:36:44;17.80;;;7.93;;
70825;SDS011;58446;41.490;22.098;2022-11-03T11:47:22;19.42;;;7.70;;
70825;SDS011;58446;41.490;22.098;2022-11-03T11:52:49;18.70;;;7.57;;
70825;SDS011;58446;41.490;22.098;2022-11-03T11:57:49;16.92;;;7.97;;
70825;SDS011;58446;41.490;22.098;2022-11-03T12:00:20;18.23;;;7.95;;
70825;SDS011;58446;41.490;22.098;2022-11-03T12:02:53;15.33;;;6.80;;
70825;SDS011;58446;41.490;22.098;2022-11-03T12:05:20;17.40;;;7.15;;
70825;SDS011;58446;41.490;22.098;2022-11-03T12:07:48;16.02;;;7.82;;
70825;SDS011;58446;41.490;22.098;2022-11-03T12:10:15;14.63;;;7.65;;
70825;SDS011;58446;41.490;22.098;2022-11-03T12:12:47;16.43;;;7.93;;
70825;SDS011;58446;41.490;22.098;2022-11-03T12:18:31;16.15;;;8.27;;
70825;SDS011;58446;41.490;22.098;2022-11-03T12:21:01;15.45;;;7.40;;
70825;SDS011;58446;41.490;22.098;2022-11-03T12:23:50;15.80;;;7.68;;
70825;SDS011;58446;41.490;22.098;2022-11-03T12:27:01;14.23;;;7.13;;
70825;SDS011;58446;41.490;22.098;2022-11-03T12:29:03;17.00;;;7.55;;
70825;SDS011;58446;41.490;22.098;2022-11-03T12:31:29;15.07;;;7.88;;
70825;SDS011;58446;41.490;22.098;2022-11-03T12:33:55;15.37;;;8.00;;
70825;SDS011;58446;41.490;22.098;2022-11-03T12:36:20;15.18;;;8.77;;
70825;SDS011;58446;41.490;22.098;2022-11-03T12:38:46;17.70;;;8.10;;
70825;SDS011;58446;41.490;22.098;2022-11-03T12:41:12;17.77;;;8.60;;
70825;SDS011;58446;41.490;22.098;2022-11-03T12:43:48;17.43;;;8.53;;
70825;SDS011;58446;41.490;22.098;2022-11-03T12:46:15;19.65;;;7.90;;
70825;SDS011;58446;41.490;22.098;2022-11-03T12:48:42;16.05;;;8.65;;
70825;SDS011;58446;41.490;22.098;2022-11-03T12:51:26;14.15;;;7.22;;
70825;SDS011;58446;41.490;22.098;2022-11-03T12:53:51;17.52;;;8.57;;
70825;SDS011;58446;41.490;22.098;2022-11-03T12:56:17;14.53;;;7.30;;
70825;SDS011;58446;41.490;22.098;2022-11-03T12:58:43;19.42;;;8.05;;
70825;SDS011;58446;41.490;22.098;2022-11-03T13:01:09;16.60;;;8.30;;
70825;SDS011;58446;41.490;22.098;2022-11-03T13:03:35;23.30;;;8.50;;
70825;SDS011;58446;41.490;22.098;2022-11-03T13:06:02;19.67;;;7.85;;
70825;SDS011;58446;41.490;22.098;2022-11-03T13:08:29;14.10;;;7.60;;
70825;SDS011;58446;41.490;22.098;2022-11-03T13:10:56;18.33;;;10.25;;
70825;SDS011;58446;41.490;22.098;2022-11-03T13:13:22;22.30;;;9.90;;
70825;SDS011;58446;41.490;22.098;2022-11-03T13:15:48;20.98;;;10.05;;
70825;SDS011;58446;41.490;22.098;2022-11-03T13:18:13;20.40;;;10.13;;
70825;SDS011;58446;41.490;22.098;2022-11-03T13:20:39;17.65;;;9.02;;
70825;SDS011;58446;41.490;22.098;2022-11-03T13:23:05;19.27;;;7.93;;
70825;SDS011;58446;41.490;22.098;2022-11-03T13:25:31;18.37;;;8.60;;
70825;SDS011;58446;41.490;22.098;2022-11-03T13:27:57;18.55;;;7.70;;
70825;SDS011;58446;41.490;22.098;2022-11-03T13:30:24;19.08;;;8.88;;
70825;SDS011;58446;41.490;22.098;2022-11-03T13:32:51;19.25;;;8.27;;
70825;SDS011;58446;41.490;22.098;2022-11-03T13:35:17;18.95;;;10.00;;
70825;SDS011;58446;41.490;22.098;2022-11-03T13:37:44;19.20;;;9.07;;
70825;SDS011;58446;41.490;22.098;2022-11-03T13:40:13;19.00;;;9.30;;
70825;SDS011;58446;41.490;22.098;2022-11-03T13:42:39;19.75;;;9.57;;
70825;SDS011;58446;41.490;22.098;2022-11-03T13:45:05;18.98;;;8.85;;
70825;SDS011;58446;41.490;22.098;2022-11-03T13:47:31;20.07;;;9.90;;
70825;SDS011;58446;41.490;22.098;2022-11-03T13:49:57;15.98;;;8.20;;
70825;SDS011;58446;41.490;22.098;2022-11-03T13:52:25;20.35;;;10.80;;
70825;SDS011;58446;41.490;22.098;2022-11-03T13:54:51;17.75;;;8.93;;
70825;SDS011;58446;41.490;22.098;2022-11-03T13:57:16;15.83;;;8.07;;
70825;SDS011;58446;41.490;22.098;2022-11-03T13:59:42;17.80;;;8.27;;
70825;SDS011;58446;41.490;22.098;2022-11-03T14:02:08;20.05;;;11.10;;
70825;SDS011;58446;41.490;22.098;2022-11-03T14:04:35;30.92;;;19.92;;
70825;SDS011;58446;41.490;22.098;2022-11-03T14:07:03;40.97;;;23.73;;
70825;SDS011;58446;41.490;22.098;2022-11-03T14:09:28;24.33;;;11.55;;
70825;SDS011;58446;41.490;22.098;2022-11-03T14:11:54;19.00;;;10.75;;
70825;SDS011;58446;41.490;22.098;2022-11-03T14:14:38;27.48;;;15.13;;
70825;SDS011;58446;41.490;22.098;2022-11-03T14:17:04;23.10;;;13.90;;
70825;SDS011;58446;41.490;22.098;2022-11-03T14:19:30;29.83;;;13.70;;
70825;SDS011;58446;41.490;22.098;2022-11-03T14:21:55;22.07;;;12.20;;
70825;SDS011;58446;41.490;22.098;2022-11-03T14:24:21;23.25;;;13.95;;
70825;SDS011;58446;41.490;22.098;2022-11-03T14:26:47;22.37;;;14.13;;
70825;SDS011;58446;41.490;22.098;2022-11-03T14:29:12;26.35;;;16.48;;
70825;SDS011;58446;41.490;22.098;2022-11-03T14:31:38;23.90;;;15.10;;
70825;SDS011;58446;41.490;22.098;2022-11-03T14:34:03;22.07;;;13.30;;
70825;SDS011;58446;41.490;22.098;2022-11-03T14:36:29;25.95;;;13.77;;
70825;SDS011;58446;41.490;22.098;2022-11-03T14:38:55;31.37;;;14.90;;
70825;SDS011;58446;41.490;22.098;2022-11-03T14:41:20;28.50;;;15.68;;
70825;SDS011;58446;41.490;22.098;2022-11-03T14:44:04;29.20;;;17.67;;
70825;SDS011;58446;41.490;22.098;2022-11-03T14:46:30;30.67;;;18.37;;
70825;SDS011;58446;41.490;22.098;2022-11-03T14:48:56;34.13;;;19.42;;
70825;SDS011;58446;41.490;22.098;2022-11-03T14:51:22;36.43;;;20.67;;
70825;SDS011;58446;41.490;22.098;2022-11-03T14:53:48;63.90;;;26.98;;
70825;SDS011;58446;41.490;22.098;2022-11-03T14:56:13;495.37;;;60.77;;
70825;SDS011;58446;41.490;22.098;2022-11-03T14:58:39;462.35;;;64.72;;
70825;SDS011;58446;41.490;22.098;2022-11-03T15:01:05;251.57;;;58.10;;
70825;SDS011;58446;41.490;22.098;2022-11-03T15:03:30;191.02;;;64.80;;
70825;SDS011;58446;41.490;22.098;2022-11-03T15:05:56;222.87;;;81.40;;
70825;SDS011;58446;41.490;22.098;2022-11-03T15:08:22;174.38;;;67.10;;
70825;SDS011;58446;41.490;22.098;2022-11-03T15:10:48;133.70;;;58.23;;
70825;SDS011;58446;41.490;22.098;2022-11-03T15:13:14;104.90;;;45.05;;
70825;SDS011;58446;41.490;22.098;2022-11-03T15:15:40;98.47;;;35.85;;
70825;SDS011;58446;41.490;22.098;2022-11-03T15:18:07;80.65;;;31.88;;
70825;SDS011;58446;41.490;22.098;2022-11-03T15:20:33;83.50;;;30.87;;